Time;durP1;ratioP1;P1;durP2;ratioP2;P2;SDS_P1;SDS_P2;PMS_P1;PMS_P2;Temp;Humidity;BMP_temperature;BMP_pressure;BME280_temperature;BME280_humidity;BME280_pressure;Samples;Min_cycle;Max_cycle;Signal;HPM_P1;HPM_P2
2021/08/19 00:02:17;;;;;;;24.33;7.18;;;;;;;;;;4942051;28;20128;-59
2021/08/19 00:04:43;;;;;;;13.70;6.72;;;;;;;;;;4943371;28;20073;-61
2021/08/19 00:07:09;;;;;;;14.93;6.60;;;;;;;;;;4929727;28;20407;-61
2021/08/19 00:09:35;;;;;;;12.93;7.13;;;;;;;;;;4944014;28;20042;-61
2021/08/19 00:12:01;;;;;;;12.98;7.20;;;;;;;;;;4925023;28;20137;-61
2021/08/19 00:14:26;;;;;;;17.00;7.25;;;;;;;;;;4941706;28;21010;-62
2021/08/19 00:16:52;;;;;;;11.45;6.80;;;;;;;;;;4941347;28;20045;-61
2021/08/19 00:19:17;;;;;;;9.75;6.50;;;;;;;;;;4926669;28;20058;-62
2021/08/19 00:21:43;;;;;;;15.50;7.15;;;;;;;;;;4924962;28;20030;-62
2021/08/19 00:24:14;;;;;;;23.13;6.82;;;;;;;;;;4943487;28;20615;-62
2021/08/19 00:26:39;;;;;;;19.45;7.20;;;;;;;;;;4940830;28;20035;-62
2021/08/19 00:29:07;;;;;;;14.32;6.72;;;;;;;;;;4940840;28;20037;-63
2021/08/19 00:31:35;;;;;;;13.65;6.50;;;;;;;;;;4929286;28;20873;-62
2021/08/19 00:34:03;;;;;;;12.77;6.65;;;;;;;;;;4943236;28;20406;-62
2021/08/19 00:36:28;;;;;;;13.38;6.82;;;;;;;;;;4941024;28;20586;-62
2021/08/19 00:38:53;;;;;;;17.33;7.13;;;;;;;;;;4940674;28;21361;-61
2021/08/19 00:41:19;;;;;;;16.13;7.25;;;;;;;;;;4923921;28;20039;-61
2021/08/19 00:43:45;;;;;;;19.45;6.93;;;;;;;;;;4942863;28;20054;-61
2021/08/19 00:46:26;;;;;;;12.73;6.68;;;;;;;;;;4940929;28;21162;-61
2021/08/19 00:49:05;;;;;;;10.00;6.60;;;;;;;;;;4939807;28;20054;-61
2021/08/19 00:51:34;;;;;;;16.13;7.32;;;;;;;;;;4941023;28;20054;-62
2021/08/19 00:54:08;;;;;;;12.25;6.22;;;;;;;;;;4942466;28;20560;-62
2021/08/19 00:56:36;;;;;;;;;;;;;;;;;;4941858;28;20038;-59
2021/08/19 00:59:04;;;;;;;10.65;6.72;;;;;;;;;;4932890;28;20547;-60
2021/08/19 01:01:32;;;;;;;11.90;5.88;;;;;;;;;;4941076;28;20035;-61
2021/08/19 01:04:00;;;;;;;18.70;7.75;;;;;;;;;;4926311;28;20038;-61
2021/08/19 01:06:28;;;;;;;24.98;6.75;;;;;;;;;;4940303;28;20131;-61
2021/08/19 01:08:54;;;;;;;13.88;7.28;;;;;;;;;;4940988;28;20490;-61
2021/08/19 01:11:23;;;;;;;18.27;7.25;;;;;;;;;;4939500;28;20031;-61
2021/08/19 01:13:51;;;;;;;22.52;6.10;;;;;;;;;;4941116;28;20027;-61
2021/08/19 01:16:17;;;;;;;14.90;6.78;;;;;;;;;;4943085;28;20731;-61
2021/08/19 01:18:46;;;;;;;14.73;6.97;;;;;;;;;;4940518;28;20031;-61
2021/08/19 01:21:14;;;;;;;13.77;7.35;;;;;;;;;;4910293;28;20041;-61
2021/08/19 01:23:40;;;;;;;14.50;7.45;;;;;;;;;;4942970;28;20151;-61
2021/08/19 01:26:15;;;;;;;21.33;7.45;;;;;;;;;;4941385;28;21013;-61
2021/08/19 01:28:42;;;;;;;14.05;7.45;;;;;;;;;;4943764;28;20043;-60
2021/08/19 01:31:19;;;;;;;11.13;6.53;;;;;;;;;;4941680;28;20030;-60
2021/08/19 01:33:45;;;;;;;16.90;6.97;;;;;;;;;;4942845;28;20042;-61
2021/08/19 01:36:14;;;;;;;15.13;6.43;;;;;;;;;;4929254;28;20026;-61
2021/08/19 01:38:42;;;;;;;13.57;6.60;;;;;;;;;;4927812;28;20030;-61
2021/08/19 01:41:08;;;;;;;17.77;7.38;;;;;;;;;;4940169;28;20034;-61
2021/08/19 01:43:38;;;;;;;13.70;6.75;;;;;;;;;;4925944;28;20035;-60
2021/08/19 01:46:09;;;;;;;16.95;6.95;;;;;;;;;;4940569;28;20039;-61
2021/08/19 01:48:35;;;;;;;14.88;7.10;;;;;;;;;;4939537;28;20039;-61
2021/08/19 01:51:01;;;;;;;18.05;7.30;;;;;;;;;;4939573;28;20064;-60
2021/08/19 01:53:27;;;;;;;13.05;7.25;;;;;;;;;;4941333;28;20122;-60
2021/08/19 01:55:55;;;;;;;12.68;6.53;;;;;;;;;;4941676;28;20027;-61
2021/08/19 01:58:21;;;;;;;14.73;6.75;;;;;;;;;;4940340;28;20070;-60
2021/08/19 02:00:49;;;;;;;19.48;7.00;;;;;;;;;;4946691;28;20795;-60
2021/08/19 02:03:19;;;;;;;17.50;7.00;;;;;;;;;;4947239;28;20042;-61
2021/08/19 02:05:48;;;;;;;15.38;7.20;;;;;;;;;;4945761;28;20030;-61
2021/08/19 02:08:14;;;;;;;13.48;6.47;;;;;;;;;;4946097;28;20046;-62
2021/08/19 02:10:40;;;;;;;19.80;7.40;;;;;;;;;;4945970;28;20970;-60
2021/08/19 02:13:06;;;;;;;15.48;7.53;;;;;;;;;;4943818;28;20038;-61
2021/08/19 02:15:36;;;;;;;16.27;7.97;;;;;;;;;;4946145;28;20026;-60
2021/08/19 02:18:04;;;;;;;19.08;7.65;;;;;;;;;;4945410;28;20611;-61
2021/08/19 02:20:30;;;;;;;14.18;7.43;;;;;;;;;;4944951;28;20121;-60
2021/08/19 02:22:59;;;;;;;14.18;7.20;;;;;;;;;;4946710;28;20034;-60
2021/08/19 02:25:25;;;;;;;15.43;6.97;;;;;;;;;;4944564;28;20049;-60
2021/08/19 02:27:50;;;;;;;14.95;7.60;;;;;;;;;;4943107;28;20034;-61
2021/08/19 02:30:15;;;;;;;14.13;6.90;;;;;;;;;;4944585;28;20637;-61
2021/08/19 02:32:41;;;;;;;15.82;7.57;;;;;;;;;;4933081;28;20129;-61
2021/08/19 02:35:06;;;;;;;16.98;7.40;;;;;;;;;;4944233;28;20038;-61
2021/08/19 02:37:32;;;;;;;16.25;7.47;;;;;;;;;;4944039;28;20043;-61
2021/08/19 02:39:58;;;;;;;14.00;7.65;;;;;;;;;;4945251;28;20049;-62
2021/08/19 02:42:23;;;;;;;17.48;7.88;;;;;;;;;;4942860;28;20129;-62
2021/08/19 02:44:50;;;;;;;18.95;7.88;;;;;;;;;;4944397;28;20023;-62
2021/08/19 02:47:17;;;;;;;17.48;8.10;;;;;;;;;;4926280;28;20031;-61
2021/08/19 02:49:49;;;;;;;21.52;8.30;;;;;;;;;;4944413;28;20862;-60
2021/08/19 02:52:14;;;;;;;15.82;8.05;;;;;;;;;;4941286;28;20030;-61
2021/08/19 02:54:40;;;;;;;20.90;7.97;;;;;;;;;;4943869;28;20027;-60
2021/08/19 02:57:05;;;;;;;20.60;8.50;;;;;;;;;;4943624;28;20030;-60
2021/08/19 02:59:30;;;;;;;18.33;8.95;;;;;;;;;;4933624;28;20058;-60
2021/08/19 03:01:58;;;;;;;22.10;9.05;;;;;;;;;;4942730;28;20039;-61
2021/08/19 03:04:26;;;;;;;19.92;10.00;;;;;;;;;;4938406;28;20417;-61
2021/08/19 03:06:54;;;;;;;19.88;9.98;;;;;;;;;;4941962;28;20141;-60
2021/08/19 03:09:25;;;;;;;21.23;10.02;;;;;;;;;;4943995;28;20479;-60
2021/08/19 03:11:53;;;;;;;27.63;9.35;;;;;;;;;;4926550;28;20054;-61
2021/08/19 03:14:21;;;;;;;21.67;9.80;;;;;;;;;;4944630;28;20387;-61
2021/08/19 03:16:49;;;;;;;18.10;9.38;;;;;;;;;;4926889;28;20047;-61
2021/08/19 03:19:20;;;;;;;20.60;9.77;;;;;;;;;;4942641;28;20130;-61
2021/08/19 03:21:45;;;;;;;18.08;9.50;;;;;;;;;;4942517;28;20034;-61
2021/08/19 03:24:13;;;;;;;21.30;9.93;;;;;;;;;;4926547;28;20561;-61
2021/08/19 03:26:39;;;;;;;20.17;9.77;;;;;;;;;;4941726;28;20068;-61
2021/08/19 03:29:05;;;;;;;22.55;10.65;;;;;;;;;;4931325;28;20030;-61
2021/08/19 03:31:33;;;;;;;22.83;10.50;;;;;;;;;;4940277;28;20069;-61
2021/08/19 03:33:58;;;;;;;21.27;10.38;;;;;;;;;;4944191;28;20156;-60
2021/08/19 03:36:25;;;;;;;19.20;10.30;;;;;;;;;;4941909;28;20088;-61
2021/08/19 03:38:53;;;;;;;22.75;11.95;;;;;;;;;;4943932;28;20027;-60
2021/08/19 03:41:20;;;;;;;23.23;10.60;;;;;;;;;;4941895;28;20039;-60
2021/08/19 03:43:46;;;;;;;19.67;11.45;;;;;;;;;;4929986;28;20034;-59
2021/08/19 03:46:12;;;;;;;23.70;10.52;;;;;;;;;;4932304;28;20031;-59
2021/08/19 03:48:44;;;;;;;20.27;9.77;;;;;;;;;;4914277;28;20023;-60
2021/08/19 03:51:09;;;;;;;22.38;10.13;;;;;;;;;;4939768;28;20038;-61
2021/08/19 03:53:36;;;;;;;23.13;11.50;;;;;;;;;;4942052;28;20043;-60
2021/08/19 03:56:05;;;;;;;23.10;11.80;;;;;;;;;;4943865;28;20031;-61
2021/08/19 03:58:37;;;;;;;24.90;13.10;;;;;;;;;;4942256;28;20051;-61
2021/08/19 04:01:02;;;;;;;28.23;11.00;;;;;;;;;;4914541;28;21792;-60
2021/08/19 04:03:28;;;;;;;34.28;13.82;;;;;;;;;;4942259;28;20034;-61
2021/08/19 04:06:01;;;;;;;21.92;11.77;;;;;;;;;;4943097;28;20047;-60
2021/08/19 04:08:29;;;;;;;24.17;12.15;;;;;;;;;;4941483;28;20051;-60
2021/08/19 04:10:59;;;;;;;26.70;12.48;;;;;;;;;;4942529;28;20047;-62
2021/08/19 04:13:30;;;;;;;23.67;11.60;;;;;;;;;;4926160;28;20042;-61
2021/08/19 04:15:56;;;;;;;30.10;12.15;;;;;;;;;;4942309;28;20027;-61
2021/08/19 04:18:22;;;;;;;28.45;12.40;;;;;;;;;;4927030;28;20027;-61
2021/08/19 04:20:50;;;;;;;28.80;12.52;;;;;;;;;;4941138;28;20097;-60
2021/08/19 04:23:15;;;;;;;28.13;12.75;;;;;;;;;;4941543;28;20042;-60
2021/08/19 04:25:45;;;;;;;26.95;12.45;;;;;;;;;;4941225;28;20039;-61
2021/08/19 04:28:13;;;;;;;26.00;12.82;;;;;;;;;;4940161;28;20042;-60
2021/08/19 04:30:38;;;;;;;25.85;12.38;;;;;;;;;;4940195;28;20058;-61
2021/08/19 04:33:04;;;;;;;26.83;12.82;;;;;;;;;;4924478;28;20189;-61
2021/08/19 04:35:31;;;;;;;28.15;13.73;;;;;;;;;;4941091;28;21917;-61
2021/08/19 04:38:01;;;;;;;24.63;12.65;;;;;;;;;;4939544;28;20058;-62
2021/08/19 04:40:27;;;;;;;24.83;13.23;;;;;;;;;;4924210;28;20792;-62
2021/08/19 04:42:53;;;;;;;21.45;11.93;;;;;;;;;;4941918;28;20022;-62
2021/08/19 04:45:23;;;;;;;26.20;12.93;;;;;;;;;;4907722;28;20038;-62
2021/08/19 04:47:49;;;;;;;26.63;12.77;;;;;;;;;;4940871;28;20049;-60
2021/08/19 04:50:17;;;;;;;27.80;12.65;;;;;;;;;;4927955;28;20023;-60
2021/08/19 04:52:42;;;;;;;31.70;12.82;;;;;;;;;;4938368;28;20038;-61
2021/08/19 04:55:08;;;;;;;24.80;12.35;;;;;;;;;;4940864;28;20035;-61
2021/08/19 04:57:34;;;;;;;19.92;11.63;;;;;;;;;;4941516;28;20561;-61
2021/08/19 04:59:59;;;;;;;27.48;12.35;;;;;;;;;;4939600;28;20043;-62
2021/08/19 05:02:27;;;;;;;22.95;12.40;;;;;;;;;;4940946;28;20038;-60
2021/08/19 05:04:55;;;;;;;28.60;12.82;;;;;;;;;;4925160;28;20049;-61
2021/08/19 05:07:25;;;;;;;23.17;11.95;;;;;;;;;;4940079;28;20612;-61
2021/08/19 05:09:50;;;;;;;24.13;11.65;;;;;;;;;;4926366;28;20113;-61
2021/08/19 05:12:16;;;;;;;19.98;11.15;;;;;;;;;;4934449;28;22142;-61
2021/08/19 05:14:41;;;;;;;19.33;11.30;;;;;;;;;;4929773;28;20104;-61
2021/08/19 05:17:11;;;;;;;22.42;11.35;;;;;;;;;;4941163;28;20466;-61
2021/08/19 05:19:39;;;;;;;23.45;10.75;;;;;;;;;;4940081;28;20966;-61
2021/08/19 05:22:07;;;;;;;20.60;10.63;;;;;;;;;;4940881;28;20035;-61
2021/08/19 05:24:32;;;;;;;28.77;12.10;;;;;;;;;;4941136;28;20043;-61
2021/08/19 05:26:58;;;;;;;23.45;11.07;;;;;;;;;;4922711;28;20046;-62
2021/08/19 05:29:26;;;;;;;18.40;10.73;;;;;;;;;;4926153;28;20039;-61
2021/08/19 05:31:52;;;;;;;33.70;11.75;;;;;;;;;;4941038;28;20130;-62
2021/08/19 05:34:17;;;;;;;26.38;11.57;;;;;;;;;;4941513;28;20893;-61
2021/08/19 05:36:45;;;;;;;21.90;10.90;;;;;;;;;;4944163;28;20039;-62
2021/08/19 05:39:14;;;;;;;27.35;11.15;;;;;;;;;;4944535;28;20541;-61
2021/08/19 05:41:42;;;;;;;28.73;11.13;;;;;;;;;;4944095;28;20121;-61
2021/08/19 05:44:09;;;;;;;27.75;11.13;;;;;;;;;;4946046;28;20047;-61
2021/08/19 05:46:41;;;;;;;21.52;10.55;;;;;;;;;;4932730;28;20023;-60
2021/08/19 05:49:07;;;;;;;19.20;10.85;;;;;;;;;;4946095;28;20027;-61
2021/08/19 05:51:38;;;;;;;23.63;10.90;;;;;;;;;;4945686;28;20019;-62
2021/08/19 05:54:06;;;;;;;27.67;11.73;;;;;;;;;;4944333;28;20030;-62
2021/08/19 05:56:34;;;;;;;22.42;10.65;;;;;;;;;;4944849;28;20121;-62
2021/08/19 05:58:59;;;;;;;21.85;10.43;;;;;;;;;;4934007;28;20030;-62
2021/08/19 06:01:25;;;;;;;22.25;11.18;;;;;;;;;;4945052;28;22311;-61
2021/08/19 06:03:53;;;;;;;36.78;11.55;;;;;;;;;;4943870;28;20062;-61
2021/08/19 06:06:23;;;;;;;30.95;11.70;;;;;;;;;;4943388;28;20793;-61
2021/08/19 06:08:49;;;;;;;22.05;10.80;;;;;;;;;;4933588;28;20073;-62
2021/08/19 06:11:17;;;;;;;23.33;11.07;;;;;;;;;;4943912;28;20049;-61
2021/08/19 06:13:45;;;;;;;35.80;11.93;;;;;;;;;;4927113;28;20032;-61
2021/08/19 06:16:10;;;;;;;20.63;11.38;;;;;;;;;;4928340;28;22081;-61
2021/08/19 06:18:38;;;;;;;27.98;11.30;;;;;;;;;;4944428;28;20039;-62
2021/08/19 06:21:03;;;;;;;28.33;12.23;;;;;;;;;;4944914;28;20039;-61
2021/08/19 06:23:29;;;;;;;27.73;12.10;;;;;;;;;;4945368;28;20037;-60
2021/08/19 06:25:54;;;;;;;29.85;10.07;;;;;;;;;;4928701;28;20600;-62
2021/08/19 06:28:25;;;;;;;28.13;11.95;;;;;;;;;;4943710;28;20038;-62
2021/08/19 06:30:52;;;;;;;22.02;10.93;;;;;;;;;;4926632;28;20601;-61
2021/08/19 06:33:19;;;;;;;24.30;10.57;;;;;;;;;;4943264;28;20286;-63
2021/08/19 06:35:45;;;;;;;21.13;11.07;;;;;;;;;;4944600;28;20030;-61
2021/08/19 06:38:14;;;;;;;24.50;10.25;;;;;;;;;;4943315;28;20546;-60
2021/08/19 06:40:42;;;;;;;25.00;10.45;;;;;;;;;;4928295;28;20136;-61
2021/08/19 06:43:08;;;;;;;29.13;11.45;;;;;;;;;;4941631;28;20026;-62
2021/08/19 06:45:33;;;;;;;22.48;9.48;;;;;;;;;;4942221;28;20077;-61
2021/08/19 06:47:58;;;;;;;18.95;9.52;;;;;;;;;;4942027;28;20122;-64
2021/08/19 06:50:26;;;;;;;18.08;8.07;;;;;;;;;;4916777;28;20561;-60
2021/08/19 06:52:52;;;;;;;16.60;7.78;;;;;;;;;;4928333;28;20031;-62
2021/08/19 06:55:17;;;;;;;13.20;6.97;;;;;;;;;;4945096;28;20101;-63
2021/08/19 06:57:43;;;;;;;14.70;7.10;;;;;;;;;;4941797;28;20124;-61
2021/08/19 07:00:11;;;;;;;15.27;6.10;;;;;;;;;;4943022;28;20584;-61
2021/08/19 07:02:39;;;;;;;14.27;6.32;;;;;;;;;;4926288;28;20039;-60
2021/08/19 07:05:05;;;;;;;12.32;5.78;;;;;;;;;;4944479;28;20069;-62
2021/08/19 07:07:31;;;;;;;11.68;6.82;;;;;;;;;;4942295;28;20089;-62
2021/08/19 07:10:03;;;;;;;10.38;6.55;;;;;;;;;;4945088;28;20049;-61
2021/08/19 07:12:28;;;;;;;11.60;6.45;;;;;;;;;;4939831;28;20043;-61
2021/08/19 07:14:54;;;;;;;10.80;5.50;;;;;;;;;;4944312;28;20059;-66
2021/08/19 07:17:21;;;;;;;10.13;5.28;;;;;;;;;;4926002;28;20035;-62
2021/08/19 07:19:49;;;;;;;15.48;5.95;;;;;;;;;;4943354;28;20039;-61
2021/08/19 07:22:17;;;;;;;14.90;5.25;;;;;;;;;;4926586;28;20126;-62
2021/08/19 07:24:43;;;;;;;10.93;4.53;;;;;;;;;;4926089;28;21930;-61
2021/08/19 07:27:09;;;;;;;9.60;4.40;;;;;;;;;;4925577;28;20042;-60
2021/08/19 07:29:37;;;;;;;8.48;4.93;;;;;;;;;;4944493;28;20122;-64
2021/08/19 07:32:03;;;;;;;6.47;4.30;;;;;;;;;;4940713;28;20042;-63
2021/08/19 07:34:28;;;;;;;6.82;4.72;;;;;;;;;;4942743;28;20026;-61
2021/08/19 07:36:54;;;;;;;7.38;4.18;;;;;;;;;;4941064;28;20046;-62
2021/08/19 07:39:24;;;;;;;8.23;4.88;;;;;;;;;;4942224;28;20481;-61
2021/08/19 07:41:55;;;;;;;9.88;5.03;;;;;;;;;;4924794;28;20039;-61
2021/08/19 07:44:20;;;;;;;10.07;5.25;;;;;;;;;;4943857;28;20109;-59
2021/08/19 07:46:46;;;;;;;7.00;4.28;;;;;;;;;;4944398;28;20031;-59
2021/08/19 07:49:17;;;;;;;10.30;5.15;;;;;;;;;;4944511;28;20070;-61
2021/08/19 07:51:42;;;;;;;10.60;4.45;;;;;;;;;;4926282;28;20063;-61
2021/08/19 07:54:10;;;;;;;10.88;5.03;;;;;;;;;;4925233;28;20035;-60
2021/08/19 07:56:35;;;;;;;10.88;4.40;;;;;;;;;;4940644;28;20057;-59
2021/08/19 07:59:03;;;;;;;8.18;5.25;;;;;;;;;;4942574;28;20142;-60
2021/08/19 08:01:31;;;;;;;10.80;4.75;;;;;;;;;;4943561;28;20119;-61
2021/08/19 08:03:56;;;;;;;10.65;5.82;;;;;;;;;;4943076;28;21962;-60
2021/08/19 08:06:21;;;;;;;13.18;5.65;;;;;;;;;;4925989;28;20030;-60
2021/08/19 08:08:50;;;;;;;12.20;6.38;;;;;;;;;;4942581;28;20047;-60
2021/08/19 08:11:15;;;;;;;12.88;5.88;;;;;;;;;;4942891;28;20506;-59
2021/08/19 08:13:43;;;;;;;6.82;4.57;;;;;;;;;;4941010;28;20038;-60
2021/08/19 08:16:09;;;;;;;12.82;4.38;;;;;;;;;;4941554;28;20097;-60
2021/08/19 08:18:37;;;;;;;6.43;3.85;;;;;;;;;;4941911;28;20023;-58
2021/08/19 08:21:03;;;;;;;5.00;3.30;;;;;;;;;;4942266;28;20446;-59
2021/08/19 08:23:32;;;;;;;8.30;3.92;;;;;;;;;;4941407;28;20031;-59
2021/08/19 08:25:59;;;;;;;8.07;4.03;;;;;;;;;;4944372;28;20589;-59
2021/08/19 08:28:30;;;;;;;7.80;3.67;;;;;;;;;;4941354;28;20034;-59
2021/08/19 08:30:56;;;;;;;7.38;4.10;;;;;;;;;;4941268;28;20058;-59
2021/08/19 08:33:22;;;;;;;5.85;3.88;;;;;;;;;;4942743;28;20117;-58
2021/08/19 08:35:47;;;;;;;7.00;3.35;;;;;;;;;;4925560;28;20030;-58
2021/08/19 08:38:21;;;;;;;8.68;3.00;;;;;;;;;;4943310;28;20027;-59
2021/08/19 08:40:51;;;;;;;6.85;3.60;;;;;;;;;;4943487;28;20046;-59
2021/08/19 08:43:18;;;;;;;7.03;3.30;;;;;;;;;;4941901;28;20183;-59
2021/08/19 08:45:46;;;;;;;5.47;2.80;;;;;;;;;;4943730;28;20118;-59
2021/08/19 08:48:21;;;;;;;3.72;2.55;;;;;;;;;;4942746;28;20043;-59
2021/08/19 08:50:52;;;;;;;2.88;2.25;;;;;;;;;;4943713;28;20035;-59
2021/08/19 08:53:22;;;;;;;4.10;2.58;;;;;;;;;;4942633;28;20491;-59
2021/08/19 08:55:48;;;;;;;6.57;2.58;;;;;;;;;;4935625;28;20039;-60
2021/08/19 08:58:14;;;;;;;3.97;2.20;;;;;;;;;;4932736;28;20121;-60
2021/08/19 09:00:40;;;;;;;2.40;1.80;;;;;;;;;;4943383;28;20030;-59
2021/08/19 09:03:07;;;;;;;3.30;1.75;;;;;;;;;;4942497;28;20611;-59
2021/08/19 09:05:51;;;;;;;1.20;1.10;;;;;;;;;;4935757;28;20034;-59
2021/08/19 09:08:18;;;;;;;2.20;1.70;;;;;;;;;;4940546;28;20089;-60
2021/08/19 09:10:47;;;;;;;1.58;1.40;;;;;;;;;;4940855;28;20074;-60
2021/08/19 09:13:20;;;;;;;2.70;1.80;;;;;;;;;;4942067;28;20054;-59
2021/08/19 09:15:47;;;;;;;2.40;1.63;;;;;;;;;;4943450;28;21025;-58
2021/08/19 09:18:28;;;;;;;2.10;1.88;;;;;;;;;;4941874;28;20114;-59
2021/08/19 09:20:57;;;;;;;2.10;1.40;;;;;;;;;;4941865;28;20046;-62
2021/08/19 09:23:22;;;;;;;1.33;1.23;;;;;;;;;;4942758;28;21147;-62
2021/08/19 09:25:50;;;;;;;1.77;1.65;;;;;;;;;;4942215;28;20047;-61
2021/08/19 09:28:16;;;;;;;2.15;1.50;;;;;;;;;;4941592;28;20140;-60
2021/08/19 09:30:47;;;;;;;1.50;1.40;;;;;;;;;;4929632;28;20093;-62
2021/08/19 09:33:13;;;;;;;2.83;1.88;;;;;;;;;;4931440;28;20027;-62
2021/08/19 09:35:43;;;;;;;3.80;1.80;;;;;;;;;;4942944;28;20234;-62
2021/08/19 09:38:14;;;;;;;2.75;1.77;;;;;;;;;;4942362;28;20031;-60
2021/08/19 09:40:43;;;;;;;1.77;1.60;;;;;;;;;;4940632;28;20034;-59
2021/08/19 09:43:13;;;;;;;2.80;1.80;;;;;;;;;;4939584;28;20035;-59
2021/08/19 09:45:43;;;;;;;2.42;2.00;;;;;;;;;;4943109;28;20043;-60
2021/08/19 09:48:09;;;;;;;3.00;2.25;;;;;;;;;;4940424;28;20039;-60
2021/08/19 09:50:37;;;;;;;2.33;1.95;;;;;;;;;;4940121;28;20031;-59
2021/08/19 09:53:24;;;;;;;6.43;2.47;;;;;;;;;;4940208;28;20395;-60
2021/08/19 09:55:53;;;;;;;4.78;2.20;;;;;;;;;;4924170;28;20736;-60
2021/08/19 09:58:30;;;;;;;3.13;2.53;;;;;;;;;;4927037;28;20049;-60
2021/08/19 10:00:58;;;;;;;4.53;2.95;;;;;;;;;;4925637;28;20045;-61
2021/08/19 10:03:26;;;;;;;2.85;2.55;;;;;;;;;;4940663;28;20067;-60
2021/08/19 10:05:55;;;;;;;5.97;3.13;;;;;;;;;;4940760;28;20035;-61
2021/08/19 10:08:35;;;;;;;6.28;2.75;;;;;;;;;;4938734;28;20050;-62
2021/08/19 10:11:04;;;;;;;8.98;2.90;;;;;;;;;;4940801;28;20039;-62
2021/08/19 10:13:32;;;;;;;3.25;2.88;;;;;;;;;;4942676;28;20743;-62
2021/08/19 10:15:59;;;;;;;6.00;3.05;;;;;;;;;;4929487;28;20304;-63
2021/08/19 10:18:32;;;;;;;4.22;2.97;;;;;;;;;;4941489;28;21964;-62
2021/08/19 10:21:07;;;;;;;6.10;3.00;;;;;;;;;;4941390;28;20143;-61
2021/08/19 10:23:37;;;;;;;4.72;2.85;;;;;;;;;;4945052;28;20038;-62
2021/08/19 10:26:04;;;;;;;3.97;2.90;;;;;;;;;;4928093;28;20543;-62
2021/08/19 10:28:45;;;;;;;7.15;3.20;;;;;;;;;;4944275;28;20096;-63
2021/08/19 10:31:12;;;;;;;6.05;3.30;;;;;;;;;;4942934;28;20035;-63
2021/08/19 10:33:38;;;;;;;5.85;3.58;;;;;;;;;;4933013;28;20031;-62
2021/08/19 10:36:09;;;;;;;8.27;3.08;;;;;;;;;;4941972;28;20102;-62
2021/08/19 10:38:35;;;;;;;7.30;3.15;;;;;;;;;;4943631;28;20047;-62
2021/08/19 10:41:00;;;;;;;5.60;3.58;;;;;;;;;;4927058;28;20070;-63
2021/08/19 10:43:28;;;;;;;5.93;3.58;;;;;;;;;;4944298;28;20034;-62
2021/08/19 10:46:04;;;;;;;6.68;3.65;;;;;;;;;;4944284;28;20371;-62
2021/08/19 10:48:41;;;;;;;8.35;4.18;;;;;;;;;;4927104;28;20705;-63
2021/08/19 10:51:11;;;;;;;5.00;3.53;;;;;;;;;;4943495;28;20079;-63
2021/08/19 10:53:39;;;;;;;6.22;3.42;;;;;;;;;;4944059;28;20030;-64
2021/08/19 10:56:06;;;;;;;9.23;3.55;;;;;;;;;;4943374;28;20118;-62
2021/08/19 10:58:37;;;;;;;6.15;3.90;;;;;;;;;;4944458;28;20049;-62
2021/08/19 11:01:14;;;;;;;7.18;3.67;;;;;;;;;;4942019;28;20046;-62
2021/08/19 11:03:43;;;;;;;8.95;3.22;;;;;;;;;;4933051;28;20059;-63
2021/08/19 11:06:16;;;;;;;4.78;3.65;;;;;;;;;;4944313;28;20561;-63
2021/08/19 11:08:51;;;;;;;6.55;3.58;;;;;;;;;;4942760;28;20043;-63
2021/08/19 11:11:36;;;;;;;5.72;2.90;;;;;;;;;;4942125;28;20042;-64
2021/08/19 11:14:10;;;;;;;13.52;3.70;;;;;;;;;;4943599;28;20059;-64
2021/08/19 11:16:41;;;;;;;6.43;2.85;;;;;;;;;;4944554;28;20086;-65
2021/08/19 11:19:13;;;;;;;6.35;3.50;;;;;;;;;;4943431;28;20027;-65
2021/08/19 11:21:39;;;;;;;6.85;2.85;;;;;;;;;;4944171;28;20031;-64
2021/08/19 11:24:09;;;;;;;6.60;2.95;;;;;;;;;;4943396;28;20051;-65
2021/08/19 11:26:37;;;;;;;3.65;2.60;;;;;;;;;;4936898;28;20918;-65
2021/08/19 11:29:03;;;;;;;6.25;2.80;;;;;;;;;;4945375;28;20048;-64
2021/08/19 11:31:28;;;;;;;4.50;2.60;;;;;;;;;;4943070;28;20114;-64
2021/08/19 11:34:00;;;;;;;7.68;3.20;;;;;;;;;;4943740;28;20710;-65
2021/08/19 11:36:26;;;;;;;4.53;3.22;;;;;;;;;;4937348;28;20050;-65
2021/08/19 11:39:02;;;;;;;6.65;3.28;;;;;;;;;;4943238;28;20015;-65
2021/08/19 11:41:30;;;;;;;5.82;3.40;;;;;;;;;;4941760;28;20042;-65
2021/08/19 11:44:03;;;;;;;8.25;3.83;;;;;;;;;;4926299;28;20116;-64
2021/08/19 11:46:30;;;;;;;11.82;4.20;;;;;;;;;;4944436;28;20051;-65
2021/08/19 11:48:59;;;;;;;8.18;3.50;;;;;;;;;;4943258;28;20031;-64
2021/08/19 11:51:31;;;;;;;14.10;3.53;;;;;;;;;;4925073;28;20130;-65
2021/08/19 11:54:04;;;;;;;7.50;3.53;;;;;;;;;;4942179;28;20038;-66
2021/08/19 11:56:33;;;;;;;6.15;3.40;;;;;;;;;;4942209;28;20089;-65
2021/08/19 11:59:01;;;;;;;5.43;3.33;;;;;;;;;;4943082;28;20035;-64
2021/08/19 12:01:30;;;;;;;4.78;2.78;;;;;;;;;;4941155;28;20038;-64
2021/08/19 12:03:56;;;;;;;5.57;3.15;;;;;;;;;;4924595;28;20040;-66
2021/08/19 12:06:24;;;;;;;7.53;3.85;;;;;;;;;;4940435;28;20034;-63
2021/08/19 12:09:02;;;;;;;6.93;3.47;;;;;;;;;;4943503;28;20043;-64
2021/08/19 12:11:32;;;;;;;6.13;3.38;;;;;;;;;;4942771;28;20039;-65
2021/08/19 12:14:00;;;;;;;7.20;3.55;;;;;;;;;;4942322;28;20039;-64
2021/08/19 12:16:29;;;;;;;5.65;3.08;;;;;;;;;;4930953;28;20035;-64
2021/08/19 12:19:16;;;;;;;10.90;3.72;;;;;;;;;;4941024;28;20113;-64
2021/08/19 12:21:47;;;;;;;12.85;4.22;;;;;;;;;;4926618;28;20676;-64
2021/08/19 12:24:18;;;;;;;7.00;3.70;;;;;;;;;;4942423;28;20161;-66
2021/08/19 12:26:59;;;;;;;7.45;3.50;;;;;;;;;;4929276;28;21024;-65
2021/08/19 12:29:27;;;;;;;8.90;3.78;;;;;;;;;;4943121;28;20668;-64
2021/08/19 12:31:58;;;;;;;8.02;3.20;;;;;;;;;;4942163;28;20121;-64
2021/08/19 12:34:23;;;;;;;6.15;3.20;;;;;;;;;;4935488;28;20571;-65
2021/08/19 12:36:54;;;;;;;5.85;3.60;;;;;;;;;;4941738;28;20027;-64
2021/08/19 12:39:19;;;;;;;7.68;3.78;;;;;;;;;;4941403;28;20038;-64
2021/08/19 12:41:48;;;;;;;9.77;3.90;;;;;;;;;;4925297;28;20037;-64
2021/08/19 12:44:21;;;;;;;8.70;3.88;;;;;;;;;;4962282;28;20166;-66
2021/08/19 12:46:49;;;;;;;8.30;3.78;;;;;;;;;;4942911;28;20063;-64
2021/08/19 12:49:22;;;;;;;9.70;3.58;;;;;;;;;;4942937;28;20620;-64
2021/08/19 12:51:48;;;;;;;7.45;3.40;;;;;;;;;;4924121;28;19925;-63
2021/08/19 12:54:21;;;;;;;8.10;4.30;;;;;;;;;;4930774;28;20034;-65
2021/08/19 12:57:01;;;;;;;10.00;3.78;;;;;;;;;;4940288;28;20590;-63
2021/08/19 12:59:26;;;;;;;9.65;4.15;;;;;;;;;;4940787;28;20031;-63
2021/08/19 13:01:54;;;;;;;8.40;3.33;;;;;;;;;;4924784;28;20046;-63
2021/08/19 13:04:20;;;;;;;11.63;4.22;;;;;;;;;;4926312;28;20039;-64
2021/08/19 13:06:45;;;;;;;8.20;3.78;;;;;;;;;;4942870;28;20506;-64
2021/08/19 13:09:11;;;;;;;9.07;4.18;;;;;;;;;;4943355;28;20854;-63
2021/08/19 13:11:37;;;;;;;11.63;3.85;;;;;;;;;;4943287;28;20043;-64
2021/08/19 13:14:05;;;;;;;13.40;4.47;;;;;;;;;;4941159;28;20039;-63
2021/08/19 13:16:30;;;;;;;13.00;4.90;;;;;;;;;;4940356;28;20049;-63
2021/08/19 13:18:56;;;;;;;8.82;4.38;;;;;;;;;;4941636;28;20518;-64
2021/08/19 13:21:24;;;;;;;10.35;5.00;;;;;;;;;;4942687;28;20125;-64
2021/08/19 13:23:49;;;;;;;7.60;4.07;;;;;;;;;;4926361;28;20542;-65
2021/08/19 13:26:15;;;;;;;16.88;4.75;;;;;;;;;;4925088;28;20031;-63
2021/08/19 13:28:45;;;;;;;12.00;4.20;;;;;;;;;;4941429;28;20070;-64
2021/08/19 13:31:11;;;;;;;7.30;4.13;;;;;;;;;;4928553;28;21790;-63
2021/08/19 13:33:39;;;;;;;9.23;4.35;;;;;;;;;;4924732;28;20031;-64
2021/08/19 13:36:07;;;;;;;9.02;4.05;;;;;;;;;;4941150;28;22084;-63
2021/08/19 13:38:35;;;;;;;7.60;3.42;;;;;;;;;;4926181;28;20499;-64
2021/08/19 13:41:03;;;;;;;8.40;3.80;;;;;;;;;;4942230;28;20041;-63
2021/08/19 13:43:29;;;;;;;12.02;4.38;;;;;;;;;;4941514;28;20046;-64
2021/08/19 13:45:54;;;;;;;17.55;3.90;;;;;;;;;;4941291;28;20028;-66
2021/08/19 13:48:23;;;;;;;10.60;3.70;;;;;;;;;;4938577;28;20043;-64
2021/08/19 13:50:50;;;;;;;10.82;3.85;;;;;;;;;;4908678;28;20042;-63
2021/08/19 13:53:16;;;;;;;11.13;3.92;;;;;;;;;;4941272;28;20041;-65
2021/08/19 13:55:41;;;;;;;8.45;3.88;;;;;;;;;;4942187;28;22113;-65
2021/08/19 13:58:07;;;;;;;10.95;3.88;;;;;;;;;;4944678;28;20027;-64
2021/08/19 14:00:35;;;;;;;10.00;3.80;;;;;;;;;;4942329;28;20658;-63
2021/08/19 14:03:01;;;;;;;15.95;4.30;;;;;;;;;;4945556;28;20039;-64
2021/08/19 14:05:26;;;;;;;4.93;3.38;;;;;;;;;;4928043;28;20027;-65
2021/08/19 14:07:56;;;;;;;6.30;3.40;;;;;;;;;;4910026;28;20031;-64
2021/08/19 14:10:22;;;;;;;10.75;3.75;;;;;;;;;;4944482;28;20094;-64
2021/08/19 14:12:48;;;;;;;12.38;3.70;;;;;;;;;;4944398;28;20137;-64
2021/08/19 14:15:13;;;;;;;7.30;4.03;;;;;;;;;;4928407;28;20058;-64
2021/08/19 14:17:39;;;;;;;9.05;4.28;;;;;;;;;;4934651;28;22009;-65
2021/08/19 14:20:07;;;;;;;8.50;3.85;;;;;;;;;;4938021;28;20031;-64
2021/08/19 14:22:35;;;;;;;12.38;4.10;;;;;;;;;;4946007;28;20043;-64
2021/08/19 14:25:03;;;;;;;11.27;3.80;;;;;;;;;;4945244;28;20192;-62
2021/08/19 14:27:29;;;;;;;9.77;4.10;;;;;;;;;;4944215;28;20118;-63
2021/08/19 14:29:57;;;;;;;8.25;3.70;;;;;;;;;;4940219;28;20037;-64
2021/08/19 14:32:22;;;;;;;11.20;3.60;;;;;;;;;;4943937;28;20054;-64
2021/08/19 14:34:48;;;;;;;13.63;3.90;;;;;;;;;;4944836;28;20193;-64
2021/08/19 14:37:18;;;;;;;9.05;3.63;;;;;;;;;;4943164;28;20027;-65
2021/08/19 14:39:43;;;;;;;11.20;4.28;;;;;;;;;;4944244;28;20034;-63